.
WxDataArchive / Data Records for 2008-04-10
2008-04-09 April 2008 2008-04-11

Data Records for Thursday, 10 April 2008

Time	Temp	Chill	HIndex	Humid	Dewpt	 Wind 	HiWind	WindDir	Rain 	Barom 
-----	----	-----	------	-----	-----	------	------	-------	-----	----- 
00:00	35.9	35.9	35.9	85	31.8	0	0	---	0.00	30.170 
00:05	35.6	35.6	35.6	85	31.5	0	0	---	0.00	30.170 
00:10	35.3	35.3	35.3	86	31.5	0	0	---	0.00	30.170 
00:15	35.2	35.2	35.2	87	31.7	0	0	---	0.00	30.170 
00:20	35.0	35.0	35.0	87	31.5	0	0	---	0.00	30.170 
00:25	35.0	35.0	35.0	88	31.8	0	0	---	0.00	30.170 
00:30	34.9	34.9	34.9	88	31.7	0	0	---	0.00	30.166 
00:35	34.9	34.9	34.9	89	32.0	0	1	112	0.00	30.166 
00:40	35.2	35.2	35.2	90	32.6	0	1	112	0.00	30.166 
00:45	35.6	35.6	35.6	90	33.0	0	2	112	0.00	30.155 
00:50	35.9	35.9	35.9	90	33.3	0	1	112	0.00	30.155 
00:55	36.0	36.0	36.0	89	33.1	0	0	---	0.00	30.155 
01:00	36.0	36.0	36.0	89	33.1	0	1	112	0.00	30.166 
01:05	35.9	35.9	35.9	89	33.0	0	0	---	0.00	30.166 
01:10	35.8	35.8	35.8	89	32.9	0	0	---	0.00	30.166 
01:15	35.6	35.6	35.6	89	32.7	0	1	112	0.00	30.166 
01:20	35.8	35.8	35.8	89	32.9	0	1	112	0.00	30.166 
01:25	35.9	35.9	35.9	90	33.3	0	2	112	0.00	30.166 
01:30	36.0	36.0	36.0	89	33.1	0	2	112	0.00	30.159 
01:35	36.2	36.2	36.2	89	33.3	0	2	112	0.00	30.159 
01:40	36.3	36.3	36.3	89	33.4	0	4	112	0.00	30.159 
01:45	36.5	36.5	36.5	88	33.3	1	3	112	0.00	30.151 
01:50	36.6	36.6	36.6	88	33.4	0	2	112	0.00	30.151 
01:55	36.8	36.8	36.8	88	33.6	0	2	112	0.00	30.151 
02:00	36.8	36.8	36.8	88	33.6	1	3	68	0.00	30.146 
02:05	36.9	36.9	36.9	88	33.7	1	4	68	0.00	30.146 
02:10	36.9	36.9	36.9	88	33.7	1	5	68	0.00	30.146 
02:15	36.9	36.9	36.9	87	33.4	1	3	90	0.00	30.137 
02:20	37.0	37.0	37.0	87	33.5	1	4	135	0.00	30.137 
02:25	37.2	37.2	37.2	87	33.7	1	3	90	0.00	30.137 
02:30	37.2	37.2	37.2	87	33.7	1	3	90	0.00	30.138 
02:35	37.2	37.2	37.2	87	33.7	1	5	90	0.00	30.138 
02:40	37.0	37.0	37.0	87	33.5	1	3	68	0.00	30.138 
02:45	37.0	37.0	37.0	87	33.5	1	4	90	0.00	30.129 
02:50	37.0	37.0	37.0	87	33.5	1	4	112	0.00	30.129 
02:55	37.0	37.0	37.0	87	33.5	0	2	112	0.00	30.129 
03:00	37.0	37.0	37.0	86	33.2	1	3	112	0.00	30.141 
03:05	36.9	36.9	36.9	86	33.1	0	2	112	0.00	30.141 
03:10	36.9	36.9	36.9	86	33.1	0	2	112	0.00	30.141 
03:15	36.8	36.8	36.8	87	33.3	0	1	112	0.00	30.132 
03:20	36.8	36.8	36.8	87	33.3	0	4	112	0.00	30.132 
03:25	36.8	36.8	36.8	87	33.3	1	3	112	0.00	30.132 
03:30	36.9	36.9	36.9	87	33.4	2	5	112	0.00	30.121 
03:35	37.0	37.0	37.0	87	33.5	2	5	112	0.00	30.121 
03:40	37.2	37.2	37.2	87	33.7	2	7	112	0.00	30.121 
03:45	37.2	37.2	37.2	87	33.7	1	4	112	0.00	30.134 
03:50	37.5	37.5	37.5	87	34.0	2	5	90	0.00	30.134 
03:55	37.5	37.5	37.5	86	33.7	2	5	90	0.00	30.134 
04:00	37.8	37.8	37.8	86	34.0	3	6	112	0.00	30.137 
04:05	37.9	34.9	37.9	86	34.1	4	7	112	0.00	30.137 
04:10	38.0	38.0	38.0	85	33.9	3	6	112	0.00	30.137 
04:15	37.9	37.9	37.9	85	33.8	3	5	90	0.00	30.141 
04:20	37.8	34.8	37.8	85	33.7	4	6	90	0.00	30.141 
04:25	37.6	37.6	37.6	86	33.8	3	7	90	0.00	30.141 
04:30	37.5	37.5	37.5	86	33.7	3	7	90	0.00	30.122 
04:35	37.3	37.3	37.3	87	33.8	3	6	90	0.00	30.122 
04:40	37.3	37.3	37.3	87	33.8	3	7	112	0.00	30.122 
04:45	37.5	37.5	37.5	87	34.0	3	9	112	0.00	30.115 
04:50	37.6	34.5	37.6	87	34.1	4	11	112	0.00	30.115 
04:55	37.8	37.8	37.8	87	34.3	3	6	135	0.00	30.115 
05:00	37.9	37.9	37.9	86	34.1	3	7	90	0.00	30.112 
05:05	37.9	37.9	37.9	86	34.1	3	6	90	0.00	30.112 
05:10	38.0	38.0	38.0	86	34.2	2	5	90	0.00	30.112 
05:15	38.2	38.2	38.2	86	34.4	2	5	90	0.00	30.135 
05:20	38.2	38.2	38.2	86	34.4	2	5	90	0.00	30.135 
05:25	38.2	38.2	38.2	85	34.1	2	4	90	0.00	30.135 
05:30	38.3	38.3	38.3	85	34.2	2	6	90	0.00	30.135 
05:35	38.3	38.3	38.3	86	34.5	3	5	90	0.00	30.135 
05:40	38.3	38.3	38.3	86	34.5	3	6	112	0.00	30.135 
05:45	38.3	38.3	38.3	86	34.5	2	6	112	0.00	30.122 
05:50	38.3	38.3	38.3	86	34.5	2	5	112	0.00	30.122 
05:55	38.5	38.5	38.5	86	34.7	2	7	112	0.00	30.122 
06:00	38.5	38.5	38.5	86	34.7	3	9	112	0.00	30.117 
06:05	38.5	38.5	38.5	86	34.7	3	10	112	0.00	30.117 
06:10	38.6	38.6	38.6	86	34.8	3	6	112	0.00	30.117 
06:15	38.6	38.6	38.6	86	34.8	3	6	112	0.00	30.122 
06:20	38.6	38.6	38.6	86	34.8	3	9	90	0.00	30.122 
06:25	38.8	38.8	38.8	86	35.0	2	6	112	0.00	30.122 
06:30	38.8	38.8	38.8	86	35.0	3	6	112	0.00	30.122 
06:35	39.1	36.3	39.1	86	35.3	4	9	112	0.00	30.122 
06:40	39.2	39.2	39.2	85	35.1	3	7	112	0.00	30.122 
06:45	39.3	36.5	39.3	85	35.2	4	9	90	0.00	30.121 
06:50	39.5	39.5	39.5	85	35.4	3	6	112	0.00	30.121 
06:55	39.6	39.6	39.6	85	35.5	3	9	112	0.00	30.121 
07:00	39.9	37.2	39.9	85	35.8	4	12	112	0.00	30.119 
07:05	40.2	36.7	40.2	84	35.8	5	10	112	0.00	30.119 
07:10	40.6	36.5	40.6	84	36.2	6	12	112	0.00	30.119 
07:15	40.9	36.2	40.9	83	36.1	7	13	112	0.00	30.134 
07:20	41.1	37.8	41.1	82	36.0	5	10	112	0.00	30.134 
07:25	41.2	37.9	41.2	82	36.1	5	13	112	0.00	30.134 
07:30	41.3	37.3	41.3	82	36.2	6	12	112	0.00	30.143 
07:35	41.3	36.7	41.3	82	36.2	7	11	112	0.00	30.143 
07:40	41.5	38.2	41.5	83	36.7	5	10	112	0.00	30.143 
07:45	41.5	37.5	41.5	83	36.7	6	15	90	0.00	30.145 
07:50	41.6	37.1	41.6	82	36.5	7	13	112	0.00	30.145 
07:55	41.8	36.8	41.8	82	36.7	8	16	90	0.00	30.145 
08:00	41.9	38.7	41.9	83	37.1	5	11	112	0.00	30.140 
08:05	42.1	38.3	42.1	83	37.3	6	10	90	0.00	30.140 
08:10	42.2	38.4	42.2	83	37.4	6	16	90	0.00	30.140 
08:15	42.3	36.9	42.3	82	37.2	9	15	90	0.00	30.125 
08:20	42.5	37.6	42.5	82	37.4	8	16	112	0.00	30.125 
08:25	42.5	37.6	42.5	82	37.4	8	17	112	0.00	30.125 
08:30	42.6	37.3	42.6	81	37.2	9	17	90	0.00	30.108 
08:35	42.8	38.5	42.8	82	37.7	7	13	112	0.00	30.108 
08:40	42.8	38.5	42.8	81	37.4	7	16	112	0.00	30.108 
08:45	42.9	39.2	42.9	81	37.5	6	11	112	0.00	30.112 
08:50	42.9	38.1	42.9	81	37.5	8	13	112	0.00	30.112 
08:55	42.8	38.0	42.8	82	37.7	8	13	112	0.00	30.112 
09:00	42.8	39.8	42.8	83	38.0	5	11	90	0.00	30.114 
09:05	42.9	39.9	42.9	84	38.4	5	12	112	0.00	30.114 
09:10	42.8	39.1	42.8	84	38.3	6	12	112	0.00	30.114 
09:15	42.9	39.2	42.9	85	38.7	6	13	112	0.00	30.094 
09:20	42.9	39.2	42.9	85	38.7	6	12	112	0.00	30.094 
09:25	43.1	38.4	43.1	85	38.9	8	15	90	0.00	30.094 
09:30	43.3	39.7	43.3	85	39.1	6	12	112	0.00	30.089 
09:35	43.3	38.6	43.3	84	38.8	8	19	112	0.00	30.089 
09:40	43.3	38.6	43.3	85	39.1	8	16	90	0.00	30.089 
09:45	43.3	38.1	43.3	84	38.8	9	18	90	0.00	30.089 
09:50	43.5	39.4	43.5	84	39.0	7	16	112	0.00	30.089 
09:55	43.6	39.5	43.6	84	39.1	7	17	112	0.00	30.089 
10:00	43.8	39.7	43.8	84	39.3	7	13	112	0.00	30.076 
10:05	43.8	40.3	43.8	83	39.0	6	11	112	0.00	30.076 
10:10	43.9	41.8	43.9	84	39.4	4	12	90	0.00	30.076 
10:15	43.9	40.4	43.9	84	39.4	6	14	90	0.01	30.090 
10:20	43.9	41.8	43.9	85	39.7	4	10	112	0.00	30.090 
10:25	44.1	41.3	44.1	84	39.6	5	10	112	0.00	30.090 
10:30	44.2	41.4	44.2	85	40.0	5	13	112	0.00	30.105 
10:35	44.2	41.4	44.2	85	40.0	5	12	112	0.00	30.105 
10:40	44.1	40.1	44.1	85	39.9	7	13	112	0.00	30.105 
10:45	43.9	39.3	43.9	86	40.0	8	13	112	0.00	30.071 
10:50	43.9	39.8	43.9	86	40.0	7	14	112	0.00	30.071 
10:55	44.1	44.1	44.1	87	40.5	3	10	112	0.00	30.071 
11:00	44.1	42.1	44.1	86	40.2	4	9	90	0.00	30.109 
11:05	44.2	40.8	44.2	86	40.3	6	18	90	0.00	30.109 
11:10	44.2	39.7	44.2	86	40.3	8	15	112	0.00	30.109 
11:15	44.3	40.3	44.3	87	40.7	7	19	112	0.00	30.049 
11:20	44.2	40.2	44.2	87	40.6	7	13	112	0.01	30.049 
11:25	44.2	40.8	44.2	88	40.9	6	13	90	0.00	30.049 
11:30	44.2	39.3	44.2	88	40.9	9	15	112	0.00	30.044 
11:35	44.1	40.1	44.1	88	40.8	7	15	112	0.01	30.044 
11:40	43.9	41.8	43.9	89	40.9	4	11	112	0.01	30.044 
11:45	44.1	42.1	44.1	89	41.1	4	8	112	0.00	30.062 
11:50	44.1	40.1	44.1	90	41.4	7	13	112	0.00	30.062 
11:55	44.1	41.3	44.1	90	41.4	5	12	112	0.00	30.062 
12:00	44.1	41.3	44.1	90	41.4	5	14	112	0.01	30.058 
12:05	44.1	41.3	44.1	90	41.4	5	10	112	0.00	30.058 
12:10	44.1	41.3	44.1	90	41.4	5	11	90	0.00	30.058 
12:15	44.2	41.4	44.2	91	41.7	5	12	90	0.01	30.053 
12:20	44.2	41.4	44.2	91	41.7	5	10	112	0.00	30.053 
12:25	44.2	40.2	44.2	91	41.7	7	14	112	0.00	30.053 
12:30	44.3	41.5	44.3	91	41.8	5	12	112	0.00	30.030 
12:35	44.3	40.9	44.3	91	41.8	6	13	112	0.00	30.030 
12:40	44.3	40.9	44.3	90	41.6	6	14	112	0.00	30.030 
12:45	44.5	41.1	44.5	90	41.8	6	13	112	0.00	30.017 
12:50	44.6	41.9	44.6	90	41.9	5	15	112	0.00	30.017 
12:55	44.6	41.2	44.6	90	41.9	6	11	112	0.00	30.017 
13:00	44.6	40.7	44.6	89	41.6	7	15	112	0.00	30.013 
13:05	44.9	42.2	44.9	89	41.9	5	14	112	0.00	30.013 
13:10	44.9	41.6	44.9	89	41.9	6	12	112	0.00	30.013 
13:15	45.1	41.3	45.1	88	41.8	7	15	112	0.00	29.994 
13:20	45.1	41.8	45.1	88	41.8	6	14	112	0.00	29.994 
13:25	45.1	41.3	45.1	88	41.8	7	15	112	0.00	29.994 
13:30	45.1	41.3	45.1	89	42.1	7	14	112	0.00	29.982 
13:35	44.9	41.0	44.9	88	41.6	7	16	112	0.01	29.982 
13:40	44.9	43.0	44.9	88	41.6	4	11	112	0.00	29.982 
13:45	44.9	41.0	44.9	87	41.3	7	16	112	0.00	29.976 
13:50	44.9	39.7	44.9	85	40.7	10	19	112	0.00	29.976 
13:55	45.1	40.8	45.1	85	40.9	8	17	90	0.00	29.976 
14:00	45.2	42.0	45.2	85	41.0	6	15	112	0.00	29.996 
14:05	45.2	41.4	45.2	85	41.0	7	13	112	0.00	29.996 
14:10	45.2	42.0	45.2	85	41.0	6	11	112	0.00	29.996 
14:15	45.1	41.3	45.1	84	40.6	7	15	112	0.00	29.995 
14:20	45.1	41.8	45.1	85	40.9	6	10	112	0.00	29.995 
14:25	45.1	41.3	45.1	85	40.9	7	14	112	0.00	29.995 
14:30	44.8	40.9	44.8	85	40.6	7	14	112	0.00	29.995 
14:35	44.8	41.5	44.8	86	40.9	6	16	112	0.00	29.995 
14:40	44.5	40.1	44.5	86	40.6	8	15	90	0.00	29.995 
14:45	44.5	41.8	44.5	87	40.9	5	9	112	0.00	29.984 
14:50	44.3	40.9	44.3	88	41.0	6	14	90	0.00	29.984 
14:55	44.3	40.9	44.3	88	41.0	6	14	90	0.00	29.984 
15:00	44.1	39.6	44.1	89	41.1	8	17	112	0.01	29.971 
15:05	43.9	38.9	43.9	90	41.2	9	19	90	0.00	29.971 
15:10	43.9	40.4	43.9	91	41.4	6	12	112	0.00	29.971 
15:15	43.9	39.3	43.9	91	41.4	8	14	90	0.00	29.966 
15:20	43.9	40.4	43.9	91	41.4	6	11	90	0.00	29.966 
15:25	43.9	39.8	43.9	91	41.4	7	14	112	0.00	29.966 
15:30	44.1	40.6	44.1	91	41.6	6	12	112	0.00	29.948 
15:35	44.1	40.6	44.1	92	41.9	6	11	112	0.01	29.948 
15:40	43.9	39.8	43.9	92	41.7	7	15	90	0.00	29.948 
15:45	44.1	40.1	44.1	92	41.9	7	12	112	0.01	29.941 
15:50	43.9	39.3	43.9	92	41.7	8	15	112	0.00	29.941 
15:55	43.9	39.3	43.9	92	41.7	8	16	112	0.00	29.941 
16:00	43.8	39.2	43.8	92	41.6	8	15	112	0.01	29.915 
16:05	43.8	39.2	43.8	93	41.9	8	15	112	0.00	29.915 
16:10	43.8	39.2	43.8	93	41.9	8	16	112	0.00	29.915 
16:15	43.8	39.2	43.8	93	41.9	8	16	112	0.01	29.886 
16:20	43.8	39.2	43.8	93	41.9	8	15	112	0.01	29.886 
16:25	43.6	38.5	43.6	93	41.7	9	20	90	0.00	29.886 
16:30	43.8	39.7	43.8	93	41.9	7	15	112	0.00	29.866 
16:35	43.8	39.7	43.8	93	41.9	7	17	112	0.01	29.866 
16:40	43.6	38.5	43.6	93	41.7	9	16	90	0.00	29.866 
16:45	43.8	38.8	43.8	93	41.9	9	16	112	0.00	29.883 
16:50	43.8	39.2	43.8	92	41.6	8	16	112	0.00	29.883 
16:55	43.8	38.8	43.8	92	41.6	9	17	90	0.00	29.883 
17:00	43.8	38.8	43.8	92	41.6	9	18	112	0.01	29.871 
17:05	43.8	38.8	43.8	93	41.9	9	15	90	0.01	29.871 
17:10	43.8	39.7	43.8	93	41.9	7	12	90	0.01	29.871 
17:15	43.6	39.0	43.6	93	41.7	8	18	90	0.01	29.861 
17:20	43.6	39.5	43.6	93	41.7	7	13	112	0.01	29.861 
17:25	43.6	38.1	43.6	93	41.7	10	18	90	0.00	29.861 
17:30	43.6	40.0	43.6	94	42.0	6	13	112	0.00	29.859 
17:35	43.6	38.5	43.6	93	41.7	9	17	112	0.01	29.859 
17:40	43.5	38.0	43.5	93	41.6	10	18	112	0.00	29.859 
17:45	43.5	38.9	43.5	93	41.6	8	18	90	0.00	29.843 
17:50	43.5	38.4	43.5	94	41.9	9	16	90	0.00	29.843 
17:55	43.5	39.4	43.5	94	41.9	7	14	112	0.01	29.843 
18:00	43.5	38.9	43.5	94	41.9	8	15	112	0.01	29.832 
18:05	43.5	39.4	43.5	94	41.9	7	14	112	0.00	29.832 
18:10	43.5	38.0	43.5	94	41.9	10	20	112	0.01	29.832 
18:15	43.5	39.4	43.5	94	41.9	7	13	90	0.01	29.821 
18:20	43.5	38.4	43.5	94	41.9	9	15	112	0.00	29.821 
18:25	43.6	39.0	43.6	94	42.0	8	14	112	0.00	29.821 
18:30	43.6	40.0	43.6	94	42.0	6	13	90	0.00	29.809 
18:35	43.6	38.5	43.6	94	42.0	9	17	112	0.00	29.809 
18:40	43.6	39.5	43.6	93	41.7	7	15	112	0.00	29.809 
18:45	43.8	39.2	43.8	93	41.9	8	18	112	0.00	29.802 
18:50	43.8	39.2	43.8	93	41.9	8	19	112	0.00	29.802 
18:55	43.8	38.8	43.8	93	41.9	9	18	112	0.00	29.802 
19:00	43.8	39.2	43.8	92	41.6	8	15	112	0.00	29.791 
19:05	43.8	39.2	43.8	92	41.6	8	16	112	0.00	29.791 
19:10	43.8	40.3	43.8	92	41.6	6	13	112	0.01	29.791 
19:15	43.8	40.3	43.8	93	41.9	6	10	112	0.01	29.794 
19:20	43.8	40.3	43.8	93	41.9	6	12	90	0.00	29.794 
19:25	43.8	39.7	43.8	93	41.9	7	13	90	0.01	29.794 
19:30	43.8	40.9	43.8	93	41.9	5	10	112	0.00	29.801 
19:35	43.8	40.9	43.8	94	42.2	5	10	90	0.00	29.801 
19:40	43.8	41.7	43.8	94	42.2	4	14	90	0.00	29.801 
19:45	43.6	40.7	43.6	94	42.0	5	11	112	0.00	29.807 
19:50	43.6	43.6	43.6	94	42.0	3	9	90	0.01	29.807 
19:55	43.5	41.4	43.5	94	41.9	4	10	112	0.00	29.807 
20:00	43.5	39.9	43.5	94	41.9	6	11	112	0.00	29.803 
20:05	43.5	40.6	43.5	94	41.9	5	11	112	0.00	29.803 
20:10	43.5	39.9	43.5	94	41.9	6	12	112	0.00	29.803 
20:15	43.3	39.1	43.3	94	41.7	7	15	112	0.00	29.769 
20:20	43.3	39.7	43.3	94	41.7	6	11	112	0.00	29.769 
20:25	43.3	39.1	43.3	94	41.7	7	13	112	0.01	29.769 
20:30	43.3	39.7	43.3	94	41.7	6	11	112	0.00	29.747 
20:35	43.5	40.6	43.5	94	41.9	5	10	90	0.00	29.747 
20:40	43.5	39.9	43.5	94	41.9	6	11	112	0.00	29.747 
20:45	43.5	39.4	43.5	93	41.6	7	12	112	0.00	29.743 
20:50	43.5	39.4	43.5	93	41.6	7	12	112	0.00	29.743 
20:55	43.5	39.9	43.5	93	41.6	6	13	112	0.00	29.743 
21:00	43.5	39.4	43.5	93	41.6	7	12	90	0.00	29.740 
21:05	43.5	40.6	43.5	93	41.6	5	12	112	0.00	29.740 
21:10	43.5	39.9	43.5	93	41.6	6	14	112	0.00	29.740 
21:15	43.5	40.6	43.5	93	41.6	5	10	90	0.00	29.726 
21:20	43.6	41.5	43.6	93	41.7	4	7	112	0.00	29.726 
21:25	43.6	41.5	43.6	93	41.7	4	10	112	0.00	29.726 
21:30	43.9	41.8	43.9	93	42.0	4	7	90	0.00	29.757 
21:35	44.1	41.3	44.1	92	41.9	5	10	112	0.00	29.757 
21:40	44.2	41.4	44.2	92	42.0	5	10	112	0.00	29.757 
21:45	44.3	41.5	44.3	92	42.1	5	9	112	0.00	29.760 
21:50	44.5	41.8	44.5	92	42.3	5	13	112	0.00	29.760 
21:55	44.6	41.2	44.6	92	42.4	6	11	112	0.01	29.760 
22:00	44.5	41.1	44.5	92	42.3	6	13	90	0.01	29.738 
22:05	44.5	41.1	44.5	92	42.3	6	13	112	0.00	29.738 
22:10	44.5	41.1	44.5	93	42.6	6	10	112	0.00	29.738 
22:15	44.5	41.1	44.5	93	42.6	6	13	112	0.01	29.714 
22:20	44.5	41.1	44.5	93	42.6	6	12	112	0.00	29.714 
22:25	44.5	41.1	44.5	93	42.6	6	16	112	0.00	29.714 
22:30	44.6	41.9	44.6	93	42.7	5	14	112	0.00	29.720 
22:35	44.9	43.0	44.9	93	43.0	4	9	112	0.00	29.720 
22:40	45.1	43.2	45.1	93	43.2	4	12	112	0.00	29.720 
22:45	45.1	45.1	45.1	93	43.2	3	9	90	0.00	29.733 
22:50	45.2	45.2	45.2	93	43.3	3	9	112	0.01	29.733 
22:55	45.1	45.1	45.1	93	43.2	3	7	112	0.00	29.733 
23:00	45.1	45.1	45.1	93	43.2	2	5	112	0.00	29.724 
23:05	45.1	43.2	45.1	93	43.2	4	7	112	0.01	29.724 
23:10	45.1	42.5	45.1	93	43.2	5	13	112	0.00	29.724 
23:15	45.1	43.2	45.1	93	43.2	4	10	112	0.01	29.713 
23:20	45.2	42.0	45.2	93	43.3	6	12	90	0.01	29.713 
23:25	45.2	41.4	45.2	93	43.3	7	14	90	0.01	29.713 
23:30	45.2	41.4	45.2	94	43.6	7	16	112	0.00	29.705 
23:35	45.4	43.6	45.4	94	43.8	4	9	90	0.02	29.705 
23:40	45.5	42.9	45.5	94	43.9	5	10	112	0.03	29.705 
23:45	45.7	42.5	45.7	94	44.1	6	14	112	0.02	29.700 
23:50	45.8	43.3	45.8	94	44.2	5	10	112	0.02	29.709 
23:55	45.8	43.3	45.8	94	44.2	5	10	112	0.02	29.713 

CoCoRaHS
IN-AL-39
A2 Web Hosting
Creative Commons License
GoDaddy
Look for:

loaded 2017-12-13 19:41:01 • last modified 2010-11-18 10:43:29
Privacy PolicyDisclaimer
• wx.awcolley.com is powered by PmWiki v.2002016 •
• all content (unless otherwise noted) © 2017 A W Colley